createdAt,value
2018-05-21T00:01:39.506Z,19.32
2018-05-21T00:04:07.092Z,19.29
2018-05-21T00:06:35.481Z,19.25
2018-05-21T00:09:03.317Z,19.20
2018-05-21T00:11:30.948Z,19.16
2018-05-21T00:13:58.537Z,19.13
2018-05-21T00:16:26.149Z,19.09
2018-05-21T00:18:53.796Z,19.04
2018-05-21T00:21:21.392Z,19.01
2018-05-21T00:23:49.177Z,18.99
2018-05-21T00:26:16.795Z,18.96
2018-05-21T00:28:44.547Z,18.89
2018-05-21T00:31:12.595Z,18.86
2018-05-21T00:33:40.694Z,18.85
2018-05-21T00:36:08.447Z,18.81
2018-05-21T00:38:36.320Z,18.78
2018-05-21T00:41:05.110Z,18.73
2018-05-21T00:43:32.856Z,18.70
2018-05-21T00:46:00.828Z,18.67
2018-05-21T00:48:28.693Z,18.66
2018-05-21T00:50:56.410Z,18.62
2018-05-21T00:53:24.261Z,18.59
2018-05-21T00:55:52.020Z,18.55
2018-05-21T00:58:19.763Z,18.52
2018-05-21T01:00:47.590Z,18.47
2018-05-21T01:03:15.373Z,18.44
2018-05-21T01:05:43.167Z,18.43
2018-05-21T01:08:11.168Z,18.44
2018-05-21T01:10:38.904Z,18.44
2018-05-21T01:13:06.660Z,18.43
2018-05-21T01:15:34.593Z,18.42
2018-05-21T01:18:02.362Z,18.43
2018-05-21T01:20:30.122Z,18.42
2018-05-21T01:22:57.936Z,18.42
2018-05-21T01:25:25.684Z,18.43
2018-05-21T01:27:53.549Z,18.43
2018-05-21T01:30:21.411Z,18.42
2018-05-21T01:32:49.224Z,18.43
2018-05-21T01:35:16.999Z,18.43
2018-05-21T01:37:44.836Z,18.41
2018-05-21T01:40:12.588Z,18.40
2018-05-21T01:42:40.350Z,18.40
2018-05-21T01:45:08.291Z,18.38
2018-05-21T01:47:36.229Z,18.31
2018-05-21T01:50:04.056Z,18.29
2018-05-21T01:52:31.877Z,18.26
2018-05-21T01:54:59.608Z,18.24
2018-05-21T01:57:27.361Z,18.22
2018-05-21T01:59:55.071Z,18.21
2018-05-21T02:02:22.700Z,18.19
2018-05-21T02:04:50.272Z,18.14
2018-05-21T02:07:17.997Z,18.09
2018-05-21T02:09:45.684Z,18.03
2018-05-21T02:12:13.270Z,18.00
2018-05-21T02:14:40.958Z,17.99
2018-05-21T02:17:08.533Z,17.95
2018-05-21T02:19:36.116Z,17.91
2018-05-21T02:22:03.839Z,17.90
2018-05-21T02:24:31.479Z,17.84
2018-05-21T02:26:59.126Z,17.83
2018-05-21T02:29:26.766Z,17.83
2018-05-21T02:31:54.352Z,17.79
2018-05-21T02:34:21.935Z,17.79
2018-05-21T02:36:49.695Z,17.73
2018-05-21T02:39:17.274Z,17.71
2018-05-21T02:41:44.918Z,17.70
2018-05-21T02:44:12.613Z,17.69
2018-05-21T02:46:40.179Z,17.69
2018-05-21T02:49:07.756Z,17.68
2018-05-21T02:51:35.436Z,17.68
2018-05-21T02:54:03.028Z,17.70
2018-05-21T02:56:30.605Z,17.71
2018-05-21T02:58:58.313Z,17.72
2018-05-21T03:01:25.900Z,17.75
2018-05-21T03:03:53.494Z,17.74
2018-05-21T03:06:21.212Z,17.71
2018-05-21T03:08:48.791Z,17.66
2018-05-21T03:11:16.468Z,17.62
2018-05-21T03:13:44.245Z,17.50
2018-05-21T03:16:11.885Z,17.42
2018-05-21T03:18:39.525Z,17.33
2018-05-21T03:21:07.143Z,17.27
2018-05-21T03:23:34.795Z,17.29
2018-05-21T03:26:02.429Z,17.32
2018-05-21T03:28:30.137Z,17.37
2018-05-21T03:30:57.716Z,17.41
2018-05-21T03:33:25.305Z,17.46
2018-05-21T03:35:52.932Z,17.43
2018-05-21T03:38:20.594Z,17.42
2018-05-21T03:40:48.180Z,17.44
2018-05-21T03:43:16.237Z,17.49
2018-05-21T03:45:43.857Z,17.56
2018-05-21T03:48:11.452Z,17.63
2018-05-21T03:50:39.285Z,17.71
2018-05-21T03:53:06.931Z,17.80
2018-05-21T03:55:34.516Z,17.89
2018-05-21T03:58:02.241Z,17.97
2018-05-21T04:00:56.178Z,18.06
2018-05-21T04:03:35.626Z,18.18
2018-05-21T04:06:03.217Z,18.28
2018-05-21T04:08:30.799Z,18.39
2018-05-21T04:10:58.521Z,18.52
2018-05-21T04:13:26.163Z,18.66
2018-05-21T04:15:54.251Z,18.80
2018-05-21T04:18:21.988Z,18.94
2018-05-21T04:20:50.099Z,19.12
2018-05-21T04:23:17.689Z,19.27
2018-05-21T04:25:45.322Z,19.44
2018-05-21T04:28:12.900Z,19.61
2018-05-21T04:30:40.494Z,19.78
2018-05-21T04:33:08.121Z,19.95
2018-05-21T04:35:35.696Z,20.10
2018-05-21T04:38:03.329Z,20.27
2018-05-21T04:40:30.939Z,20.45
2018-05-21T04:42:58.512Z,20.63
2018-05-21T04:45:26.089Z,20.78
2018-05-21T04:47:53.734Z,20.95
2018-05-21T04:50:21.381Z,21.14
2018-05-21T04:52:48.975Z,21.31
2018-05-21T04:55:16.668Z,21.49
2018-05-21T04:57:44.244Z,21.68
2018-05-21T05:00:11.849Z,21.86
2018-05-21T05:02:39.571Z,21.90
2018-05-21T05:05:07.348Z,22.15
2018-05-21T05:07:34.916Z,22.43
2018-05-21T05:10:03.571Z,22.65
2018-05-21T05:12:31.161Z,22.82
2018-05-21T05:14:58.769Z,22.91
2018-05-21T05:17:26.492Z,23.09
2018-05-21T05:19:54.136Z,23.07
2018-05-21T05:22:21.773Z,23.18
2018-05-21T05:24:49.576Z,23.37
2018-05-21T05:27:17.172Z,23.58
2018-05-21T05:29:44.813Z,23.82
2018-05-21T05:32:12.436Z,24.12
2018-05-21T05:34:40.066Z,24.35
2018-05-21T05:37:07.773Z,24.43
2018-05-21T05:39:35.403Z,24.60
2018-05-21T05:42:03.017Z,24.68
2018-05-21T05:44:30.624Z,24.73
2018-05-21T05:46:58.250Z,24.74
2018-05-21T05:49:25.847Z,24.50
2018-05-21T05:51:53.423Z,24.62
2018-05-21T05:54:21.035Z,24.73
2018-05-21T05:56:48.609Z,24.54
2018-05-21T05:59:17.123Z,24.45
2018-05-21T06:01:44.840Z,24.41
2018-05-21T06:04:12.474Z,24.74
2018-05-21T06:06:40.043Z,25.01
2018-05-21T06:09:07.767Z,25.32
2018-05-21T06:11:35.349Z,25.47
2018-05-21T06:14:02.984Z,25.66
2018-05-21T06:16:30.626Z,25.87
2018-05-21T06:18:58.216Z,25.87
2018-05-21T06:21:25.807Z,26.03
2018-05-21T06:23:53.441Z,26.22
2018-05-21T06:26:21.046Z,26.27
2018-05-21T06:28:48.677Z,26.35
2018-05-21T06:31:16.344Z,26.34
2018-05-21T06:33:44.570Z,26.41
2018-05-21T06:36:12.171Z,26.61
2018-05-21T06:38:39.919Z,26.56
2018-05-21T06:41:07.545Z,26.74
2018-05-21T06:43:35.199Z,26.69
2018-05-21T06:46:02.827Z,26.79
2018-05-21T06:53:54.123Z,26.63
2018-05-21T06:56:21.698Z,26.67
2018-05-21T06:58:49.279Z,26.91
2018-05-21T07:01:17.608Z,27.09
2018-05-21T07:03:45.214Z,26.92
2018-05-21T07:06:12.853Z,26.99
2018-05-21T07:08:40.500Z,27.09
2018-05-21T07:11:08.151Z,27.29
2018-05-21T07:13:35.731Z,27.09
2018-05-21T07:16:03.362Z,27.08
2018-05-21T07:18:31.108Z,27.36
2018-05-21T07:20:58.743Z,27.79
2018-05-21T07:23:26.500Z,27.66
2018-05-21T07:25:54.109Z,27.33
2018-05-21T07:28:21.696Z,27.36
2018-05-21T07:30:49.403Z,27.34
2018-05-21T07:33:16.991Z,27.31
2018-05-21T07:35:44.576Z,27.41
2018-05-21T07:38:12.280Z,27.56
2018-05-21T07:40:39.945Z,27.20
2018-05-21T07:43:07.589Z,26.96
2018-05-21T07:45:35.199Z,26.94
2018-05-21T07:48:02.783Z,27.03
2018-05-21T07:50:30.384Z,27.34
2018-05-21T07:52:58.123Z,27.60
2018-05-21T07:55:28.547Z,27.83
2018-05-21T07:57:56.176Z,27.62
2018-05-21T08:00:23.826Z,27.66
2018-05-21T08:02:51.411Z,27.79
2018-05-21T08:05:19.033Z,27.77
2018-05-21T08:07:46.641Z,27.73
2018-05-21T08:10:14.294Z,27.81
2018-05-21T08:12:41.892Z,27.39
2018-05-21T08:15:09.606Z,27.81
2018-05-21T08:17:37.187Z,27.56
2018-05-21T08:20:04.909Z,26.76
2018-05-21T08:22:32.623Z,26.51
2018-05-21T08:25:00.213Z,25.86
2018-05-21T08:27:27.795Z,25.66
2018-05-21T08:29:55.634Z,25.56
2018-05-21T08:32:23.199Z,25.43
2018-05-21T08:34:50.775Z,25.36
2018-05-21T08:37:18.410Z,25.34
2018-05-21T08:39:46.003Z,25.43
2018-05-21T08:42:13.607Z,25.43
2018-05-21T08:44:41.240Z,25.12
2018-05-21T08:47:08.819Z,25.14
2018-05-21T08:49:36.415Z,25.08
2018-05-21T08:52:04.138Z,25.07
2018-05-21T08:54:31.719Z,24.89
2018-05-21T08:56:59.363Z,24.76
2018-05-21T08:59:27.080Z,24.63
2018-05-21T09:01:54.660Z,24.78
2018-05-21T09:04:22.248Z,24.83
2018-05-21T09:06:49.954Z,24.89
2018-05-21T09:09:17.600Z,25.11
2018-05-21T09:11:45.676Z,25.22
2018-05-21T09:14:13.309Z,25.34
2018-05-21T09:16:40.968Z,25.28
2018-05-21T09:19:08.516Z,25.36
2018-05-21T09:21:36.209Z,25.61
2018-05-21T09:24:03.808Z,25.63
2018-05-21T09:26:31.403Z,25.65
2018-05-21T09:28:59.131Z,25.48
2018-05-21T09:31:26.839Z,25.50
2018-05-21T09:33:54.415Z,25.49
2018-05-21T09:36:22.096Z,25.46
2018-05-21T09:38:49.667Z,25.56
2018-05-21T09:41:17.321Z,25.68
2018-05-21T09:43:44.956Z,25.85
2018-05-21T09:46:12.621Z,25.76
2018-05-21T09:48:40.216Z,25.65
2018-05-21T09:51:07.861Z,25.56
2018-05-21T09:53:35.439Z,25.63
2018-05-21T09:56:03.651Z,25.27
2018-05-21T09:58:31.340Z,25.52
2018-05-21T10:00:58.964Z,25.70
2018-05-21T10:03:26.544Z,25.92
2018-05-21T10:05:54.172Z,26.09
2018-05-21T10:08:21.789Z,26.07
2018-05-21T10:10:49.367Z,25.90
2018-05-21T10:13:16.987Z,25.97
2018-05-21T10:15:44.572Z,26.14
2018-05-21T10:18:12.232Z,26.59
2018-05-21T10:20:39.912Z,27.04
2018-05-21T10:23:08.472Z,26.87
2018-05-21T10:25:36.088Z,26.70
2018-05-21T10:28:03.871Z,26.81
2018-05-21T10:30:31.520Z,26.82
2018-05-21T10:32:59.095Z,26.91
2018-05-21T10:35:26.748Z,27.12
2018-05-21T10:37:54.347Z,27.00
2018-05-21T10:40:21.925Z,26.76
2018-05-21T10:42:49.626Z,26.81
2018-05-21T10:45:17.216Z,26.94
2018-05-21T10:47:44.812Z,26.98
2018-05-21T10:50:12.565Z,26.76
2018-05-21T10:52:40.209Z,26.65
2018-05-21T10:55:07.912Z,26.39
2018-05-21T10:57:35.696Z,26.28
2018-05-21T11:00:03.331Z,26.15
2018-05-21T11:02:31.005Z,26.09
2018-05-21T11:04:58.702Z,26.08
2018-05-21T11:07:26.404Z,26.10
2018-05-21T11:09:54.023Z,26.05
2018-05-21T11:12:21.726Z,26.10
2018-05-21T11:14:49.312Z,26.05
2018-05-21T11:17:16.916Z,25.96
2018-05-21T11:19:44.563Z,25.88
2018-05-21T11:22:12.146Z,25.79
2018-05-21T11:24:39.760Z,25.79
2018-05-21T11:27:07.537Z,25.80
2018-05-21T11:29:35.107Z,25.82
2018-05-21T11:32:02.862Z,25.98
2018-05-21T11:34:30.468Z,26.13
2018-05-21T11:36:58.051Z,26.22
2018-05-21T11:39:25.629Z,26.32
2018-05-21T11:41:53.249Z,26.22
2018-05-21T11:44:20.876Z,26.15
2018-05-21T11:46:48.474Z,26.08
2018-05-21T11:49:16.167Z,26.01
2018-05-21T11:51:43.744Z,26.09
2018-05-21T11:54:11.335Z,26.15
2018-05-21T11:56:38.964Z,26.26
2018-05-21T11:59:06.553Z,26.41
2018-05-21T12:01:34.216Z,26.80
2018-05-21T12:04:01.848Z,27.15
2018-05-21T12:06:29.442Z,27.39
2018-05-21T12:08:57.077Z,27.58
2018-05-21T12:11:24.751Z,27.62
2018-05-21T12:13:52.340Z,27.51
2018-05-21T12:16:19.905Z,27.61
2018-05-21T12:18:47.852Z,27.72
2018-05-21T12:21:15.421Z,28.06
2018-05-21T12:23:43.008Z,27.96
2018-05-21T12:26:10.784Z,27.47
2018-05-21T12:28:38.438Z,27.12
2018-05-21T12:31:05.960Z,26.93
2018-05-21T12:33:33.646Z,26.49
2018-05-21T12:36:01.229Z,26.35
2018-05-21T12:38:28.874Z,26.16
2018-05-21T12:40:56.519Z,25.70
2018-05-21T12:43:24.104Z,25.64
2018-05-21T12:45:51.704Z,25.64
2018-05-21T12:48:19.422Z,25.59
2018-05-21T12:50:47.027Z,25.52
2018-05-21T12:53:14.649Z,25.51
2018-05-21T12:55:42.278Z,25.52
2018-05-21T12:58:09.865Z,25.40
2018-05-21T13:00:37.442Z,25.38
2018-05-21T13:03:05.273Z,25.47
2018-05-21T13:05:32.837Z,25.46
2018-05-21T13:08:00.491Z,25.53
2018-05-21T13:10:28.268Z,25.55
2018-05-21T13:12:56.066Z,25.70
2018-05-21T13:15:23.705Z,25.92
2018-05-21T13:17:51.367Z,26.03
2018-05-21T13:20:18.948Z,26.13
2018-05-21T13:22:46.699Z,26.16
2018-05-21T13:25:14.481Z,26.31
2018-05-21T13:27:42.796Z,26.22
2018-05-21T13:30:10.381Z,26.30
2018-05-21T13:32:38.029Z,26.30
2018-05-21T13:35:05.680Z,26.28
2018-05-21T13:37:33.301Z,26.05
2018-05-21T13:40:01.001Z,25.97
2018-05-21T13:42:28.579Z,25.82
2018-05-21T13:44:56.177Z,25.91
2018-05-21T13:47:23.844Z,25.95
2018-05-21T13:49:51.432Z,25.97
2018-05-21T13:52:19.146Z,25.94
2018-05-21T13:54:46.755Z,25.86
2018-05-21T13:57:14.339Z,25.90
2018-05-21T13:59:41.985Z,25.95
2018-05-21T14:02:09.786Z,26.03
2018-05-21T14:04:37.433Z,25.94
2018-05-21T14:07:05.009Z,26.00
2018-05-21T14:09:32.629Z,26.03
2018-05-21T14:12:00.273Z,25.89
2018-05-21T14:14:27.853Z,25.83
2018-05-21T14:16:55.595Z,25.80
2018-05-21T14:19:23.244Z,25.82
2018-05-21T14:21:50.817Z,25.79
2018-05-21T14:24:19.304Z,25.78
2018-05-21T14:26:47.037Z,25.72
2018-05-21T14:29:14.631Z,25.77
2018-05-21T14:31:42.360Z,25.69
2018-05-21T14:34:09.937Z,25.80
2018-05-21T14:36:37.574Z,25.74
2018-05-21T14:39:06.164Z,25.76
2018-05-21T14:41:33.752Z,25.75
2018-05-21T14:44:01.319Z,25.74
2018-05-21T14:46:29.066Z,25.73
2018-05-21T14:48:56.681Z,25.50
2018-05-21T14:51:24.259Z,25.48
2018-05-21T14:53:51.993Z,25.51
2018-05-21T14:56:19.642Z,25.53
2018-05-21T14:58:47.280Z,25.53
2018-05-21T15:01:14.923Z,25.48
2018-05-21T15:03:42.551Z,25.44
2018-05-21T15:06:10.200Z,25.50
2018-05-21T15:08:37.868Z,25.45
2018-05-21T15:11:05.492Z,25.44
2018-05-21T15:13:33.060Z,25.30
2018-05-21T15:16:00.767Z,25.19
2018-05-21T15:18:28.395Z,25.16
2018-05-21T15:20:56.062Z,25.11
2018-05-21T15:23:23.740Z,25.01
2018-05-21T15:25:51.337Z,24.87
2018-05-21T15:28:18.904Z,24.84
2018-05-21T15:30:46.643Z,24.81
2018-05-21T15:33:14.281Z,24.69
2018-05-21T15:35:41.864Z,24.65
2018-05-21T15:38:09.534Z,24.63
2018-05-21T15:40:37.181Z,24.61
2018-05-21T15:43:04.897Z,24.63
2018-05-21T15:45:32.642Z,24.52
2018-05-21T15:48:00.212Z,24.46
2018-05-21T15:50:28.804Z,24.37
2018-05-21T15:52:56.675Z,24.34
2018-05-21T15:55:24.252Z,24.29
2018-05-21T15:57:51.846Z,24.21
2018-05-21T16:00:19.467Z,24.08
2018-05-21T16:02:47.048Z,23.94
2018-05-21T16:05:14.696Z,23.91
2018-05-21T16:07:42.484Z,23.91
2018-05-21T16:10:10.065Z,23.89
2018-05-21T16:12:37.721Z,23.81
2018-05-21T16:15:05.478Z,23.75
2018-05-21T16:17:33.056Z,23.75
2018-05-21T16:20:00.642Z,23.66
2018-05-21T16:22:28.425Z,23.55
2018-05-21T16:24:56.087Z,23.48
2018-05-21T16:27:23.659Z,23.42
2018-05-21T16:29:51.286Z,23.35
2018-05-21T16:32:18.913Z,23.26
2018-05-21T16:34:46.495Z,23.16
2018-05-21T16:37:14.129Z,23.15
2018-05-21T16:39:42.939Z,23.13
2018-05-21T16:42:10.507Z,23.09
2018-05-21T16:44:38.252Z,22.93
2018-05-21T16:47:05.841Z,22.90
2018-05-21T16:49:33.419Z,22.85
2018-05-21T16:52:01.070Z,22.73
2018-05-21T16:54:28.716Z,22.73
2018-05-21T16:56:56.323Z,22.70
2018-05-21T16:59:24.058Z,22.61
2018-05-21T17:01:51.652Z,22.58
2018-05-21T17:04:19.298Z,22.56
2018-05-21T17:06:47.040Z,22.52
2018-05-21T17:09:14.632Z,22.41
2018-05-21T17:11:42.208Z,22.27
2018-05-21T17:14:09.932Z,22.19
2018-05-21T17:16:37.524Z,22.13
2018-05-21T17:19:05.540Z,22.02
2018-05-21T17:21:33.779Z,21.90
2018-05-21T17:24:01.490Z,21.85
2018-05-21T17:26:29.051Z,21.75
2018-05-21T17:28:56.688Z,21.65
2018-05-21T17:31:24.263Z,21.66
2018-05-21T17:33:51.867Z,21.65
2018-05-21T17:36:19.502Z,21.64
2018-05-21T17:38:47.096Z,21.65
2018-05-21T17:41:14.685Z,21.52
2018-05-21T17:43:42.313Z,21.52
2018-05-21T17:46:09.936Z,21.47
2018-05-21T17:48:37.585Z,21.41
2018-05-21T17:51:05.233Z,21.34
2018-05-21T17:53:32.890Z,21.24
2018-05-21T17:56:00.528Z,21.17
2018-05-21T17:58:28.231Z,21.11
2018-05-21T18:00:55.868Z,21.08
2018-05-21T18:03:23.446Z,20.95
2018-05-21T18:05:51.116Z,20.82
2018-05-21T18:08:18.688Z,20.77
2018-05-21T18:10:46.291Z,20.67
2018-05-21T18:13:13.916Z,20.65
2018-05-21T18:15:41.512Z,20.58
2018-05-21T18:18:10.519Z,20.51
2018-05-21T18:20:38.252Z,20.50
2018-05-21T18:23:05.825Z,20.47
2018-05-21T18:25:33.409Z,20.37
2018-05-21T18:28:01.057Z,20.36
2018-05-21T18:30:28.890Z,20.26
2018-05-21T18:32:56.537Z,20.23
2018-05-21T18:35:24.216Z,20.22
2018-05-21T18:37:51.792Z,20.09
2018-05-21T18:40:19.444Z,19.99
2018-05-21T18:42:47.173Z,19.95
2018-05-21T18:45:14.756Z,19.92
2018-05-21T18:47:42.381Z,19.86
2018-05-21T18:50:10.016Z,19.81
2018-05-21T18:52:37.604Z,19.72
2018-05-21T18:55:05.211Z,19.69
2018-05-21T18:57:32.828Z,19.56
2018-05-21T19:00:00.424Z,19.57
2018-05-21T19:02:28.072Z,19.47
2018-05-21T19:04:55.713Z,19.47
2018-05-21T19:07:23.307Z,19.43
2018-05-21T19:09:50.883Z,19.34
2018-05-21T19:12:18.506Z,19.29
2018-05-21T19:14:46.085Z,19.19
2018-05-21T19:17:13.672Z,19.18
2018-05-21T19:19:41.360Z,19.07
2018-05-21T19:22:08.988Z,19.04
2018-05-21T19:24:36.578Z,19.04
2018-05-21T19:27:04.301Z,19.04
2018-05-21T19:29:31.895Z,19.03
2018-05-21T19:31:59.516Z,19.04
2018-05-21T19:34:27.300Z,19.03
2018-05-21T19:36:54.985Z,19.03
2018-05-21T19:39:22.621Z,19.01
2018-05-21T19:41:50.259Z,19.00
2018-05-21T19:44:17.897Z,19.01
2018-05-21T19:46:45.459Z,18.93
2018-05-21T19:49:13.195Z,18.87
2018-05-21T19:51:40.800Z,18.82
2018-05-21T19:54:08.370Z,18.83
2018-05-21T19:56:36.024Z,18.84
2018-05-21T19:59:03.707Z,18.77
2018-05-21T20:01:31.292Z,18.74
2018-05-21T20:03:58.929Z,18.72
2018-05-21T20:06:26.653Z,18.66
2018-05-21T20:08:54.301Z,18.57
2018-05-21T20:11:22.957Z,18.56
2018-05-21T20:13:50.531Z,18.60
2018-05-21T20:16:18.181Z,18.58
2018-05-21T20:18:45.877Z,18.54
2018-05-21T20:21:13.528Z,18.56
2018-05-21T20:23:41.091Z,18.50
2018-05-21T20:26:08.745Z,18.42
2018-05-21T20:28:36.331Z,18.46
2018-05-21T20:31:03.940Z,18.40
2018-05-21T20:33:31.659Z,18.40
2018-05-21T20:35:59.497Z,18.38
2018-05-21T20:38:27.172Z,18.32
2018-05-21T20:40:54.943Z,18.29
2018-05-21T20:43:23.214Z,18.31
2018-05-21T20:45:50.826Z,18.36
2018-05-21T20:48:18.547Z,18.35
2018-05-21T20:50:46.140Z,18.39
2018-05-21T20:53:13.724Z,18.41
2018-05-21T20:55:41.314Z,18.41
2018-05-21T20:58:08.949Z,18.47
2018-05-21T21:00:36.534Z,18.44
2018-05-21T21:03:04.171Z,18.47
2018-05-21T21:05:31.741Z,18.48
2018-05-21T21:07:59.433Z,18.41
2018-05-21T21:10:26.999Z,18.38
2018-05-21T21:12:54.623Z,18.26
2018-05-21T21:15:22.272Z,18.24
2018-05-21T21:17:49.934Z,18.17
2018-05-21T21:20:17.572Z,18.20
2018-05-21T21:22:45.230Z,18.25
2018-05-21T21:25:12.826Z,18.29
2018-05-21T21:27:40.412Z,18.31
2018-05-21T21:30:08.060Z,18.28
2018-05-21T21:32:35.630Z,18.28
2018-05-21T21:35:03.302Z,18.25
2018-05-21T21:37:31.649Z,18.25
2018-05-21T21:39:59.289Z,18.28
2018-05-21T21:42:26.856Z,18.27
2018-05-21T21:44:54.633Z,18.30
2018-05-21T21:47:22.167Z,18.33
2018-05-21T21:49:49.752Z,18.37
2018-05-21T21:52:17.515Z,18.38
2018-05-21T21:54:45.117Z,18.42
2018-05-21T21:57:12.690Z,18.43
2018-05-21T21:59:40.319Z,18.44
2018-05-21T22:02:07.894Z,18.49
2018-05-21T22:04:35.475Z,18.49
2018-05-21T22:07:03.209Z,18.51
2018-05-21T22:09:30.869Z,18.54
2018-05-21T22:11:58.439Z,18.57
2018-05-21T22:14:26.161Z,18.60
2018-05-21T22:16:53.744Z,18.60
2018-05-21T22:19:21.321Z,18.64
2018-05-21T22:21:49.047Z,18.65
2018-05-21T22:24:16.694Z,18.69
2018-05-21T22:26:44.299Z,18.67
2018-05-21T22:29:11.912Z,18.64
2018-05-21T22:31:39.556Z,18.61
2018-05-21T22:34:07.893Z,18.66
2018-05-21T22:36:35.520Z,18.65
2018-05-21T22:39:03.129Z,18.69
2018-05-21T22:41:30.700Z,18.68
2018-05-21T22:43:58.377Z,18.65
2018-05-21T22:46:25.988Z,18.67
2018-05-21T22:48:53.641Z,18.64
2018-05-21T22:51:21.361Z,18.61
2018-05-21T22:53:48.971Z,18.57
2018-05-21T22:56:16.666Z,18.55
2018-05-21T22:58:44.381Z,18.57
2018-05-21T23:01:12.044Z,18.58
2018-05-21T23:03:39.689Z,18.53
2018-05-21T23:06:07.501Z,18.53
2018-05-21T23:08:35.137Z,18.49
2018-05-21T23:11:02.793Z,18.48
2018-05-21T23:13:30.437Z,18.46
2018-05-21T23:15:58.681Z,18.48
2018-05-21T23:18:26.267Z,18.48
2018-05-21T23:20:53.899Z,18.47
2018-05-21T23:23:21.487Z,18.45
2018-05-21T23:25:49.132Z,18.43
2018-05-21T23:28:16.933Z,18.48
2018-05-21T23:30:44.515Z,18.49
2018-05-21T23:33:12.112Z,18.55
2018-05-21T23:35:39.885Z,18.53
2018-05-21T23:38:07.458Z,18.51
2018-05-21T23:40:35.096Z,18.54
2018-05-21T23:43:02.743Z,18.55
2018-05-21T23:45:30.504Z,18.55
2018-05-21T23:47:58.133Z,18.58
2018-05-21T23:50:25.758Z,18.55
2018-05-21T23:52:53.377Z,18.54
2018-05-21T23:55:20.993Z,18.52
2018-05-21T23:57:48.614Z,18.49
